sensor_id;sensor_type;location;lat;lon;timestamp;pressure;altitude;pressure_sealevel;temperature;humidity
81511;BME280;70931;48.796;8.440;2023-08-06T00:02:16;96441.47;;;13.68;85.78
81511;BME280;70931;48.796;8.440;2023-08-06T00:04:41;96450.16;;;13.57;86.55
81511;BME280;70931;48.796;8.440;2023-08-06T00:07:06;96446.84;;;13.68;86.07
81511;BME280;70931;48.796;8.440;2023-08-06T00:09:31;96442.91;;;13.70;86.39
81511;BME280;70931;48.796;8.440;2023-08-06T00:11:57;96443.09;;;13.82;85.54
81511;BME280;70931;48.796;8.440;2023-08-06T00:14:22;96437.53;;;13.77;85.95
81511;BME280;70931;48.796;8.440;2023-08-06T00:16:47;96446.78;;;13.81;85.59
81511;BME280;70931;48.796;8.440;2023-08-06T00:19:12;96443.16;;;13.56;86.86
81511;BME280;70931;48.796;8.440;2023-08-06T00:21:38;96432.81;;;13.66;86.51
81511;BME280;70931;48.796;8.440;2023-08-06T00:24:03;96442.50;;;13.67;86.09
81511;BME280;70931;48.796;8.440;2023-08-06T00:26:28;96428.50;;;13.52;86.68
81511;BME280;70931;48.796;8.440;2023-08-06T00:28:53;96434.47;;;13.60;86.99
81511;BME280;70931;48.796;8.440;2023-08-06T00:31:19;96418.84;;;13.51;86.69
81511;BME280;70931;48.796;8.440;2023-08-06T00:33:44;96424.81;;;13.59;86.53
81511;BME280;70931;48.796;8.440;2023-08-06T00:36:09;96416.34;;;13.56;86.50
81511;BME280;70931;48.796;8.440;2023-08-06T00:38:35;96379.13;;;13.28;87.09
81511;BME280;70931;48.796;8.440;2023-08-06T00:41:00;96397.84;;;13.35;86.98
81511;BME280;70931;48.796;8.440;2023-08-06T00:43:25;96408.13;;;13.51;86.85
81511;BME280;70931;48.796;8.440;2023-08-06T00:45:50;96410.19;;;13.36;87.02
81511;BME280;70931;48.796;8.440;2023-08-06T00:48:16;96415.53;;;13.49;86.98
81511;BME280;70931;48.796;8.440;2023-08-06T00:50:41;96412.66;;;13.57;86.04
81511;BME280;70931;48.796;8.440;2023-08-06T00:53:07;96409.34;;;13.61;86.54
81511;BME280;70931;48.796;8.440;2023-08-06T00:55:32;96401.34;;;13.42;86.44
81511;BME280;70931;48.796;8.440;2023-08-06T00:57:58;96416.34;;;13.56;86.56
81511;BME280;70931;48.796;8.440;2023-08-06T01:00:24;96409.56;;;13.47;87.44
81511;BME280;70931;48.796;8.440;2023-08-06T01:02:49;96404.22;;;13.40;86.85
81511;BME280;70931;48.796;8.440;2023-08-06T01:05:15;96394.53;;;13.46;87.15
81511;BME280;70931;48.796;8.440;2023-08-06T01:13:23;96402.31;;;13.67;86.37
81511;BME280;70931;48.796;8.440;2023-08-06T01:15:53;96396.72;;;13.75;86.44
81511;BME280;70931;48.796;8.440;2023-08-06T01:18:19;96391.00;;;13.65;86.80
81511;BME280;70931;48.796;8.440;2023-08-06T01:20:45;96389.56;;;13.56;87.70
81511;BME280;70931;48.796;8.440;2023-08-06T01:23:10;96392.00;;;13.64;87.70
81511;BME280;70931;48.796;8.440;2023-08-06T01:25:45;96377.19;;;13.61;86.86
81511;BME280;70931;48.796;8.440;2023-08-06T01:28:29;96372.66;;;13.62;86.71
81511;BME280;70931;48.796;8.440;2023-08-06T01:30:59;96370.34;;;13.72;86.89
81511;BME280;70931;48.796;8.440;2023-08-06T01:33:27;96368.94;;;13.63;86.97
81511;BME280;70931;48.796;8.440;2023-08-06T01:35:56;96341.81;;;13.40;87.37
81511;BME280;70931;48.796;8.440;2023-08-06T01:38:22;96363.59;;;13.50;87.51
81511;BME280;70931;48.796;8.440;2023-08-06T01:40:48;96356.56;;;13.62;86.97
81511;BME280;70931;48.796;8.440;2023-08-06T01:43:13;96358.59;;;13.73;86.88
81511;BME280;70931;48.796;8.440;2023-08-06T01:45:38;96349.47;;;13.87;86.69
81511;BME280;70931;48.796;8.440;2023-08-06T01:48:03;96346.63;;;13.82;86.50
81511;BME280;70931;48.796;8.440;2023-08-06T01:50:29;96342.84;;;13.90;86.43
81511;BME280;70931;48.796;8.440;2023-08-06T01:52:54;96348.03;;;13.91;86.48
81511;BME280;70931;48.796;8.440;2023-08-06T01:55:19;96313.66;;;13.75;86.17
81511;BME280;70931;48.796;8.440;2023-08-06T01:57:44;96341.84;;;13.84;86.57
81511;BME280;70931;48.796;8.440;2023-08-06T02:00:10;96336.28;;;13.86;86.48
81511;BME280;70931;48.796;8.440;2023-08-06T02:02:35;96338.91;;;13.99;86.28
81511;BME280;70931;48.796;8.440;2023-08-06T02:05:01;96346.97;;;13.92;86.26
81511;BME280;70931;48.796;8.440;2023-08-06T02:07:26;96346.16;;;13.92;85.71
81511;BME280;70931;48.796;8.440;2023-08-06T02:09:51;96345.72;;;13.95;85.94
81511;BME280;70931;48.796;8.440;2023-08-06T02:12:16;96347.59;;;13.94;86.78
81511;BME280;70931;48.796;8.440;2023-08-06T02:14:41;96335.38;;;14.05;86.90
81511;BME280;70931;48.796;8.440;2023-08-06T02:17:07;96342.75;;;14.09;86.54
81511;BME280;70931;48.796;8.440;2023-08-06T02:19:32;96349.34;;;14.13;86.64
81511;BME280;70931;48.796;8.440;2023-08-06T02:21:58;96343.00;;;14.01;86.89
81511;BME280;70931;48.796;8.440;2023-08-06T02:24:23;96343.13;;;14.19;86.23
81511;BME280;70931;48.796;8.440;2023-08-06T02:26:48;96345.88;;;14.06;86.72
81511;BME280;70931;48.796;8.440;2023-08-06T02:29:14;96349.78;;;14.10;86.78
81511;BME280;70931;48.796;8.440;2023-08-06T02:31:39;96332.19;;;14.21;85.88
81511;BME280;70931;48.796;8.440;2023-08-06T02:34:04;96266.81;;;13.84;86.33
81511;BME280;70931;48.796;8.440;2023-08-06T02:36:29;96318.56;;;14.22;86.60
81511;BME280;70931;48.796;8.440;2023-08-06T02:38:55;96310.16;;;14.12;86.41
81511;BME280;70931;48.796;8.440;2023-08-06T02:41:20;96338.97;;;14.23;86.30
81511;BME280;70931;48.796;8.440;2023-08-06T02:43:45;96349.66;;;14.37;86.53
81511;BME280;70931;48.796;8.440;2023-08-06T02:46:10;96340.19;;;14.27;86.57
81511;BME280;70931;48.796;8.440;2023-08-06T02:48:36;96345.34;;;14.29;84.45
81511;BME280;70931;48.796;8.440;2023-08-06T02:51:01;96338.09;;;14.29;83.11
81511;BME280;70931;48.796;8.440;2023-08-06T02:53:26;96370.72;;;14.26;83.75
81511;BME280;70931;48.796;8.440;2023-08-06T02:55:52;96351.59;;;14.16;85.05
81511;BME280;70931;48.796;8.440;2023-08-06T02:58:17;96353.47;;;14.09;84.60
81511;BME280;70931;48.796;8.440;2023-08-06T03:00:43;96352.28;;;14.05;83.67
81511;BME280;70931;48.796;8.440;2023-08-06T03:03:09;96367.44;;;14.24;83.71
81511;BME280;70931;48.796;8.440;2023-08-06T03:05:34;96345.25;;;14.04;81.57
81511;BME280;70931;48.796;8.440;2023-08-06T03:08:00;96372.03;;;14.17;83.62
81511;BME280;70931;48.796;8.440;2023-08-06T03:10:25;96379.13;;;13.92;83.36
81511;BME280;70931;48.796;8.440;2023-08-06T03:12:50;96378.53;;;13.90;83.74
81511;BME280;70931;48.796;8.440;2023-08-06T03:15:16;96370.25;;;13.98;82.98
81511;BME280;70931;48.796;8.440;2023-08-06T03:17:41;96379.63;;;13.69;83.03
81511;BME280;70931;48.796;8.440;2023-08-06T03:20:06;96363.78;;;13.68;84.12
81511;BME280;70931;48.796;8.440;2023-08-06T03:22:32;96347.53;;;13.63;83.83
81511;BME280;70931;48.796;8.440;2023-08-06T03:24:57;96361.69;;;13.70;84.36
81511;BME280;70931;48.796;8.440;2023-08-06T03:27:22;96346.19;;;13.85;84.11
81511;BME280;70931;48.796;8.440;2023-08-06T03:29:51;96363.88;;;13.93;83.93
81511;BME280;70931;48.796;8.440;2023-08-06T03:32:16;96346.19;;;13.85;83.82
81511;BME280;70931;48.796;8.440;2023-08-06T03:34:41;96351.31;;;13.93;83.25
81511;BME280;70931;48.796;8.440;2023-08-06T03:37:07;96351.56;;;13.85;82.26
81511;BME280;70931;48.796;8.440;2023-08-06T03:39:32;96342.69;;;13.78;80.87
81511;BME280;70931;48.796;8.440;2023-08-06T03:41:57;96349.31;;;13.69;81.92
81511;BME280;70931;48.796;8.440;2023-08-06T03:44:22;96345.88;;;13.62;82.26
81511;BME280;70931;48.796;8.440;2023-08-06T03:46:47;96340.25;;;13.70;82.16
81511;BME280;70931;48.796;8.440;2023-08-06T03:49:13;96348.47;;;13.75;82.19
81511;BME280;70931;48.796;8.440;2023-08-06T03:51:38;96342.28;;;13.75;81.46
81511;BME280;70931;48.796;8.440;2023-08-06T03:54:03;96328.72;;;13.69;82.09
81511;BME280;70931;48.796;8.440;2023-08-06T03:56:28;96336.97;;;13.68;81.51
81511;BME280;70931;48.796;8.440;2023-08-06T03:58:53;96333.50;;;13.61;80.83
81511;BME280;70931;48.796;8.440;2023-08-06T04:01:19;96344.56;;;13.78;80.97
81511;BME280;70931;48.796;8.440;2023-08-06T04:03:44;96308.84;;;13.46;81.32
81511;BME280;70931;48.796;8.440;2023-08-06T04:06:09;96342.53;;;13.73;80.42
81511;BME280;70931;48.796;8.440;2023-08-06T04:08:34;96332.22;;;13.70;81.85
81511;BME280;70931;48.796;8.440;2023-08-06T04:11:00;96347.69;;;13.68;80.99
81511;BME280;70931;48.796;8.440;2023-08-06T04:13:25;96354.69;;;13.69;80.90
81511;BME280;70931;48.796;8.440;2023-08-06T04:15:50;96343.78;;;13.70;81.76
81511;BME280;70931;48.796;8.440;2023-08-06T04:18:15;96338.44;;;13.64;81.33
81511;BME280;70931;48.796;8.440;2023-08-06T04:20:45;96322.34;;;13.64;81.81
81511;BME280;70931;48.796;8.440;2023-08-06T04:23:10;96332.81;;;13.72;81.64
81511;BME280;70931;48.796;8.440;2023-08-06T04:25:35;96337.16;;;13.73;81.01
81511;BME280;70931;48.796;8.440;2023-08-06T04:28:01;96328.94;;;13.68;81.64
81511;BME280;70931;48.796;8.440;2023-08-06T04:30:26;96337.59;;;13.70;82.20
81511;BME280;70931;48.796;8.440;2023-08-06T04:32:51;96332.81;;;13.72;81.95
81511;BME280;70931;48.796;8.440;2023-08-06T04:35:16;96331.19;;;13.71;82.44
81511;BME280;70931;48.796;8.440;2023-08-06T04:37:41;96325.44;;;13.67;83.16
81511;BME280;70931;48.796;8.440;2023-08-06T04:40:07;96329.13;;;13.73;82.40
81511;BME280;70931;48.796;8.440;2023-08-06T04:42:32;96327.28;;;13.67;83.75
81511;BME280;70931;48.796;8.440;2023-08-06T04:44:58;96328.13;;;13.61;84.01
81511;BME280;70931;48.796;8.440;2023-08-06T04:47:23;96331.63;;;13.68;83.70
81511;BME280;70931;48.796;8.440;2023-08-06T04:49:48;96331.88;;;13.60;83.99
81511;BME280;70931;48.796;8.440;2023-08-06T04:52:13;96321.78;;;13.49;84.75
81511;BME280;70931;48.796;8.440;2023-08-06T04:54:39;96327.78;;;13.51;84.26
81511;BME280;70931;48.796;8.440;2023-08-06T04:57:04;96336.81;;;13.50;84.97
81511;BME280;70931;48.796;8.440;2023-08-06T04:59:29;96326.09;;;13.63;84.98
81511;BME280;70931;48.796;8.440;2023-08-06T05:01:55;96335.56;;;13.59;83.70
81511;BME280;70931;48.796;8.440;2023-08-06T05:04:20;96340.88;;;13.72;84.57
81511;BME280;70931;48.796;8.440;2023-08-06T05:06:45;96338.66;;;13.56;85.44
81511;BME280;70931;48.796;8.440;2023-08-06T05:09:10;96339.84;;;13.66;84.10
81511;BME280;70931;48.796;8.440;2023-08-06T05:11:35;96345.50;;;13.45;83.41
81511;BME280;70931;48.796;8.440;2023-08-06T05:14:01;96352.06;;;13.56;84.67
81511;BME280;70931;48.796;8.440;2023-08-06T05:16:26;96332.06;;;13.52;84.02
81511;BME280;70931;48.796;8.440;2023-08-06T05:18:51;96345.50;;;13.45;84.15
81511;BME280;70931;48.796;8.440;2023-08-06T05:21:16;96348.53;;;13.62;83.98
81511;BME280;70931;48.796;8.440;2023-08-06T05:23:42;96355.38;;;13.45;84.74
81511;BME280;70931;48.796;8.440;2023-08-06T05:26:08;96351.88;;;13.44;83.86
81511;BME280;70931;48.796;8.440;2023-08-06T05:28:34;96324.13;;;13.26;83.61
81511;BME280;70931;48.796;8.440;2023-08-06T05:31:03;96358.25;;;13.50;84.17
81511;BME280;70931;48.796;8.440;2023-08-06T05:33:28;96360.31;;;13.48;83.44
81511;BME280;70931;48.796;8.440;2023-08-06T05:35:53;96352.72;;;13.45;85.29
81511;BME280;70931;48.796;8.440;2023-08-06T05:38:18;96356.81;;;13.54;84.25
81511;BME280;70931;48.796;8.440;2023-08-06T05:40:43;96350.25;;;13.37;84.22
81511;BME280;70931;48.796;8.440;2023-08-06T05:43:09;96357.06;;;13.33;84.39
81511;BME280;70931;48.796;8.440;2023-08-06T05:45:34;96343.44;;;13.41;83.74
81511;BME280;70931;48.796;8.440;2023-08-06T05:47:59;96363.19;;;13.53;85.08
81511;BME280;70931;48.796;8.440;2023-08-06T05:50:25;96363.25;;;13.40;83.50
81511;BME280;70931;48.796;8.440;2023-08-06T05:52:50;96363.47;;;13.25;85.38
81511;BME280;70931;48.796;8.440;2023-08-06T05:55:15;96357.47;;;13.36;84.48
81511;BME280;70931;48.796;8.440;2023-08-06T05:57:40;96369.78;;;13.50;84.37
81511;BME280;70931;48.796;8.440;2023-08-06T06:00:08;96346.69;;;13.56;84.16
81511;BME280;70931;48.796;8.440;2023-08-06T06:02:33;96374.06;;;13.71;84.64
81511;BME280;70931;48.796;8.440;2023-08-06T06:04:58;96371.41;;;13.71;84.48
81511;BME280;70931;48.796;8.440;2023-08-06T06:07:23;96365.28;;;13.51;85.70
81511;BME280;70931;48.796;8.440;2023-08-06T06:09:49;96371.88;;;13.42;84.33
81511;BME280;70931;48.796;8.440;2023-08-06T06:12:14;96376.19;;;13.49;84.79
81511;BME280;70931;48.796;8.440;2023-08-06T06:14:39;96375.63;;;13.34;85.25
81511;BME280;70931;48.796;8.440;2023-08-06T06:17:04;96374.56;;;13.29;85.51
81511;BME280;70931;48.796;8.440;2023-08-06T06:19:29;96352.97;;;13.17;84.37
81511;BME280;70931;48.796;8.440;2023-08-06T06:21:55;96387.53;;;13.38;84.20
81511;BME280;70931;48.796;8.440;2023-08-06T06:24:20;96389.97;;;13.53;84.98
81511;BME280;70931;48.796;8.440;2023-08-06T06:26:45;96386.28;;;13.54;85.21
81511;BME280;70931;48.796;8.440;2023-08-06T06:29:10;96385.06;;;13.30;84.66
81511;BME280;70931;48.796;8.440;2023-08-06T06:31:36;96402.78;;;13.51;83.54
81511;BME280;70931;48.796;8.440;2023-08-06T06:34:01;96399.91;;;13.46;84.78
81511;BME280;70931;48.796;8.440;2023-08-06T06:36:26;96405.88;;;13.35;85.40
81511;BME280;70931;48.796;8.440;2023-08-06T06:38:51;96404.47;;;13.26;84.54
81511;BME280;70931;48.796;8.440;2023-08-06T06:41:16;96400.94;;;13.19;84.91
81511;BME280;70931;48.796;8.440;2023-08-06T06:43:42;96405.47;;;13.25;85.53
81511;BME280;70931;48.796;8.440;2023-08-06T06:46:07;96410.19;;;13.29;85.40
81511;BME280;70931;48.796;8.440;2023-08-06T06:48:33;96421.09;;;13.41;85.30
81511;BME280;70931;48.796;8.440;2023-08-06T06:50:58;96402.59;;;13.33;86.26
81511;BME280;70931;48.796;8.440;2023-08-06T06:53:24;96395.81;;;13.10;86.26
81511;BME280;70931;48.796;8.440;2023-08-06T06:55:49;96407.75;;;13.21;85.70
81511;BME280;70931;48.796;8.440;2023-08-06T06:58:15;96415.53;;;13.03;84.85
81511;BME280;70931;48.796;8.440;2023-08-06T07:00:40;96423.41;;;13.31;84.62
81511;BME280;70931;48.796;8.440;2023-08-06T07:03:06;96413.09;;;13.34;85.86
81511;BME280;70931;48.796;8.440;2023-08-06T07:05:31;96413.50;;;13.25;85.21
81511;BME280;70931;48.796;8.440;2023-08-06T07:07:56;96404.44;;;13.12;85.20
81511;BME280;70931;48.796;8.440;2023-08-06T07:10:21;96424.19;;;13.38;84.15
81511;BME280;70931;48.796;8.440;2023-08-06T07:12:46;96415.16;;;13.19;86.11
81511;BME280;70931;48.796;8.440;2023-08-06T07:15:12;96411.44;;;13.27;86.56
81511;BME280;70931;48.796;8.440;2023-08-06T07:17:37;96420.31;;;13.34;86.13
81511;BME280;70931;48.796;8.440;2023-08-06T07:20:03;96410.81;;;13.38;85.39
81511;BME280;70931;48.796;8.440;2023-08-06T07:22:28;96411.88;;;13.37;85.80
81511;BME280;70931;48.796;8.440;2023-08-06T07:24:53;96412.00;;;13.55;85.18
81511;BME280;70931;48.796;8.440;2023-08-06T07:27:19;96411.41;;;13.53;85.23
81511;BME280;70931;48.796;8.440;2023-08-06T07:29:44;96414.31;;;13.51;85.44
81511;BME280;70931;48.796;8.440;2023-08-06T07:32:09;96409.38;;;13.42;84.48
81511;BME280;70931;48.796;8.440;2023-08-06T07:34:34;96395.78;;;13.37;85.01
81511;BME280;70931;48.796;8.440;2023-08-06T07:36:59;96422.13;;;13.59;85.32
81511;BME280;70931;48.796;8.440;2023-08-06T07:39:25;96361.84;;;13.11;85.07
81511;BME280;70931;48.796;8.440;2023-08-06T07:41:50;96425.00;;;13.58;84.40
81511;BME280;70931;48.796;8.440;2023-08-06T07:44:15;96427.91;;;13.63;85.12
81511;BME280;70931;48.796;8.440;2023-08-06T07:46:40;96412.00;;;13.55;84.17
81511;BME280;70931;48.796;8.440;2023-08-06T07:49:06;96416.56;;;13.54;85.48
81511;BME280;70931;48.796;8.440;2023-08-06T07:51:31;96403.78;;;13.56;85.67
81511;BME280;70931;48.796;8.440;2023-08-06T07:53:56;96413.00;;;13.80;85.18
81511;BME280;70931;48.796;8.440;2023-08-06T07:56:21;96419.63;;;13.58;86.08
81511;BME280;70931;48.796;8.440;2023-08-06T07:58:47;96427.25;;;13.61;86.38
81511;BME280;70931;48.796;8.440;2023-08-06T08:01:12;96428.69;;;13.70;84.68
81511;BME280;70931;48.796;8.440;2023-08-06T08:03:37;96430.34;;;13.64;85.12
81511;BME280;70931;48.796;8.440;2023-08-06T08:06:02;96426.59;;;13.79;84.78
81511;BME280;70931;48.796;8.440;2023-08-06T08:08:28;96424.56;;;13.74;85.04
81511;BME280;70931;48.796;8.440;2023-08-06T08:10:54;96444.78;;;13.63;82.66
81511;BME280;70931;48.796;8.440;2023-08-06T08:13:19;96428.72;;;13.57;84.27
81511;BME280;70931;48.796;8.440;2023-08-06T08:15:44;96450.16;;;13.57;84.66
81511;BME280;70931;48.796;8.440;2023-08-06T08:18:09;96434.66;;;13.72;85.66
81511;BME280;70931;48.796;8.440;2023-08-06T08:20:35;96428.28;;;13.73;85.57
81511;BME280;70931;48.796;8.440;2023-08-06T08:23:00;96429.13;;;13.54;86.24
81511;BME280;70931;48.796;8.440;2023-08-06T08:25:26;96433.84;;;13.65;85.69
81511;BME280;70931;48.796;8.440;2023-08-06T08:27:51;96420.03;;;13.68;84.75
81511;BME280;70931;48.796;8.440;2023-08-06T08:30:16;96424.16;;;13.70;85.18
81511;BME280;70931;48.796;8.440;2023-08-06T08:32:42;96431.53;;;13.88;85.20
81511;BME280;70931;48.796;8.440;2023-08-06T08:35:07;96422.09;;;13.66;86.21
81511;BME280;70931;48.796;8.440;2023-08-06T08:37:33;96429.50;;;13.70;86.73
81511;BME280;70931;48.796;8.440;2023-08-06T08:39:58;96428.31;;;13.60;85.80
81511;BME280;70931;48.796;8.440;2023-08-06T08:42:23;96448.47;;;13.69;86.02
81511;BME280;70931;48.796;8.440;2023-08-06T08:44:49;96455.09;;;13.47;86.44
81511;BME280;70931;48.796;8.440;2023-08-06T08:47:15;96450.59;;;13.34;87.45
81511;BME280;70931;48.796;8.440;2023-08-06T08:49:40;96463.97;;;13.28;87.62
81511;BME280;70931;48.796;8.440;2023-08-06T08:52:06;96453.88;;;13.30;87.52
81511;BME280;70931;48.796;8.440;2023-08-06T08:54:32;96464.53;;;13.03;87.44
81511;BME280;70931;48.796;8.440;2023-08-06T08:56:58;96457.59;;;13.22;87.30
81511;BME280;70931;48.796;8.440;2023-08-06T08:59:23;96454.69;;;13.30;86.72
81511;BME280;70931;48.796;8.440;2023-08-06T09:01:48;96473.25;;;13.25;86.27
81511;BME280;70931;48.796;8.440;2023-08-06T09:04:14;96494.66;;;13.32;86.93
81511;BME280;70931;48.796;8.440;2023-08-06T09:06:41;96467.91;;;13.25;87.15
81511;BME280;70931;48.796;8.440;2023-08-06T09:09:10;96476.31;;;13.29;88.13
81511;BME280;70931;48.796;8.440;2023-08-06T09:11:43;96476.53;;;13.21;86.69
81511;BME280;70931;48.796;8.440;2023-08-06T09:14:08;96479.41;;;13.12;87.55
81511;BME280;70931;48.796;8.440;2023-08-06T09:16:37;96460.88;;;13.31;86.98
81511;BME280;70931;48.796;8.440;2023-08-06T09:19:12;96472.22;;;13.33;87.67
81511;BME280;70931;48.796;8.440;2023-08-06T09:21:41;96488.91;;;13.41;87.29
81511;BME280;70931;48.796;8.440;2023-08-06T09:24:12;96467.06;;;13.38;87.93
81511;BME280;70931;48.796;8.440;2023-08-06T09:26:38;96458.00;;;13.12;87.15
81511;BME280;70931;48.796;8.440;2023-08-06T09:29:08;96473.03;;;13.27;87.42
81511;BME280;70931;48.796;8.440;2023-08-06T09:31:44;96476.31;;;13.29;87.98
81511;BME280;70931;48.796;8.440;2023-08-06T09:34:16;96480.47;;;13.31;88.66
81511;BME280;70931;48.796;8.440;2023-08-06T09:36:43;96497.13;;;13.27;87.48
81511;BME280;70931;48.796;8.440;2023-08-06T09:39:21;96489.72;;;13.16;88.57
81511;BME280;70931;48.796;8.440;2023-08-06T09:41:47;96505.59;;;13.30;88.38
81511;BME280;70931;48.796;8.440;2023-08-06T09:44:21;96520.81;;;13.23;88.27
81511;BME280;70931;48.796;8.440;2023-08-06T09:46:56;96512.38;;;13.26;86.63
81511;BME280;70931;48.796;8.440;2023-08-06T09:51:59;96507.03;;;13.46;87.93
81511;BME280;70931;48.796;8.440;2023-08-06T09:54:27;96513.63;;;13.37;87.84
81511;BME280;70931;48.796;8.440;2023-08-06T09:56:54;96497.13;;;13.13;87.07
81511;BME280;70931;48.796;8.440;2023-08-06T09:59:19;96547.41;;;13.25;88.09
81511;BME280;70931;48.796;8.440;2023-08-06T10:01:45;96536.47;;;13.33;86.93
81511;BME280;70931;48.796;8.440;2023-08-06T10:04:13;96560.56;;;13.26;87.98
81511;BME280;70931;48.796;8.440;2023-08-06T10:06:38;96544.50;;;13.33;87.07
81511;BME280;70931;48.796;8.440;2023-08-06T10:09:04;96556.88;;;13.27;86.87
81511;BME280;70931;48.796;8.440;2023-08-06T10:11:30;96546.13;;;13.21;88.64
81511;BME280;70931;48.796;8.440;2023-08-06T10:14:47;96524.44;;;12.96;88.56
81511;BME280;70931;48.796;8.440;2023-08-06T10:16:48;96539.31;;;13.11;87.67
81511;BME280;70931;48.796;8.440;2023-08-06T10:19:15;96556.84;;;13.21;87.54
81511;BME280;70931;48.796;8.440;2023-08-06T10:21:42;96554.56;;;13.18;87.86
81511;BME280;70931;48.796;8.440;2023-08-06T10:24:27;96530.44;;;12.91;87.96
81511;BME280;70931;48.796;8.440;2023-08-06T10:26:56;96570.25;;;13.14;87.74
81511;BME280;70931;48.796;8.440;2023-08-06T10:29:36;96555.53;;;13.03;88.27
81511;BME280;70931;48.796;8.440;2023-08-06T10:32:01;96550.19;;;13.03;87.34
81511;BME280;70931;48.796;8.440;2023-08-06T10:34:58;96564.53;;;12.83;87.98
81511;BME280;70931;48.796;8.440;2023-08-06T10:37:25;96557.19;;;12.91;87.83
81511;BME280;70931;48.796;8.440;2023-08-06T10:39:59;96581.09;;;13.06;87.96
81511;BME280;70931;48.796;8.440;2023-08-06T10:42:28;96592.19;;;12.96;87.16
81511;BME280;70931;48.796;8.440;2023-08-06T10:45:16;96588.47;;;12.97;86.84
81511;BME280;70931;48.796;8.440;2023-08-06T10:47:42;96577.69;;;12.71;86.43
81511;BME280;70931;48.796;8.440;2023-08-06T10:50:11;96577.75;;;12.84;87.55
81511;BME280;70931;48.796;8.440;2023-08-06T10:52:37;96593.19;;;12.82;87.61
81511;BME280;70931;48.796;8.440;2023-08-06T10:55:02;96584.94;;;12.84;87.51
81511;BME280;70931;48.796;8.440;2023-08-06T10:57:28;96591.78;;;12.99;87.35
81511;BME280;70931;48.796;8.440;2023-08-06T10:59:53;96576.72;;;12.85;87.04
81511;BME280;70931;48.796;8.440;2023-08-06T11:02:18;96610.84;;;12.83;87.48
81511;BME280;70931;48.796;8.440;2023-08-06T11:04:43;96600.81;;;12.85;87.67
81511;BME280;70931;48.796;8.440;2023-08-06T11:07:09;96602.47;;;12.93;87.30
81511;BME280;70931;48.796;8.440;2023-08-06T11:09:35;96615.16;;;12.71;87.03
81511;BME280;70931;48.796;8.440;2023-08-06T11:12:00;96624.16;;;12.64;86.96
81511;BME280;70931;48.796;8.440;2023-08-06T11:14:25;96615.06;;;12.58;86.87
81511;BME280;70931;48.796;8.440;2023-08-06T11:16:50;96611.25;;;12.74;87.67
81511;BME280;70931;48.796;8.440;2023-08-06T11:19:16;96606.78;;;12.87;86.29
81511;BME280;70931;48.796;8.440;2023-08-06T11:21:42;96634.28;;;12.68;86.73
81511;BME280;70931;48.796;8.440;2023-08-06T11:24:08;96613.88;;;12.67;85.87
81511;BME280;70931;48.796;8.440;2023-08-06T11:26:33;96643.63;;;12.92;86.99
81511;BME280;70931;48.796;8.440;2023-08-06T11:28:58;96627.31;;;12.80;87.13
81511;BME280;70931;48.796;8.440;2023-08-06T11:31:24;96650.59;;;12.86;86.45
81511;BME280;70931;48.796;8.440;2023-08-06T11:33:53;96622.25;;;12.57;86.79
81511;BME280;70931;48.796;8.440;2023-08-06T11:36:40;96644.59;;;12.71;86.04
81511;BME280;70931;48.796;8.440;2023-08-06T11:39:06;96648.28;;;12.70;87.14
81511;BME280;70931;48.796;8.440;2023-08-06T11:41:32;96634.28;;;12.68;86.29
81511;BME280;70931;48.796;8.440;2023-08-06T11:43:58;96612.19;;;12.53;85.08
81511;BME280;70931;48.796;8.440;2023-08-06T11:46:24;96653.41;;;12.65;85.03
81511;BME280;70931;48.796;8.440;2023-08-06T11:48:53;96645.25;;;12.80;85.88
81511;BME280;70931;48.796;8.440;2023-08-06T11:51:22;96637.00;;;12.81;85.74
81511;BME280;70931;48.796;8.440;2023-08-06T11:53:55;96651.66;;;12.85;85.96
81511;BME280;70931;48.796;8.440;2023-08-06T11:56:20;96633.66;;;12.73;85.37
81511;BME280;70931;48.796;8.440;2023-08-06T11:58:46;96652.69;;;12.91;86.11
81511;BME280;70931;48.796;8.440;2023-08-06T12:01:11;96648.28;;;12.70;85.68
81511;BME280;70931;48.796;8.440;2023-08-06T12:03:40;96641.16;;;12.90;85.50
81511;BME280;70931;48.796;8.440;2023-08-06T12:06:06;96658.28;;;12.96;86.65
81511;BME280;70931;48.796;8.440;2023-08-06T12:08:31;96660.72;;;12.91;86.66
81511;BME280;70931;48.796;8.440;2023-08-06T12:10:56;96661.00;;;13.02;86.62
81511;BME280;70931;48.796;8.440;2023-08-06T12:13:21;96680.03;;;12.80;86.94
81511;BME280;70931;48.796;8.440;2023-08-06T12:15:47;96679.38;;;12.71;85.50
81511;BME280;70931;48.796;8.440;2023-08-06T12:18:12;96678.59;;;12.84;85.35
81511;BME280;70931;48.796;8.440;2023-08-06T12:20:37;96680.69;;;12.88;84.98
81511;BME280;70931;48.796;8.440;2023-08-06T12:23:02;96677.34;;;12.80;85.12
81511;BME280;70931;48.796;8.440;2023-08-06T12:25:28;96676.56;;;12.92;84.76
81511;BME280;70931;48.796;8.440;2023-08-06T12:27:53;96680.03;;;12.80;85.55
81511;BME280;70931;48.796;8.440;2023-08-06T12:30:18;96681.94;;;12.92;85.21
81511;BME280;70931;48.796;8.440;2023-08-06T12:32:43;96671.63;;;12.89;86.13
81511;BME280;70931;48.796;8.440;2023-08-06T12:35:08;96667.06;;;12.83;84.55
81511;BME280;70931;48.796;8.440;2023-08-06T12:37:34;96665.59;;;12.81;85.04
81511;BME280;70931;48.796;8.440;2023-08-06T12:40:00;96669.81;;;12.96;84.65
81511;BME280;70931;48.796;8.440;2023-08-06T12:42:25;96674.13;;;12.91;84.41
81511;BME280;70931;48.796;8.440;2023-08-06T12:44:50;96659.94;;;13.03;84.56
81511;BME280;70931;48.796;8.440;2023-08-06T12:47:17;96653.09;;;12.94;84.06
81511;BME280;70931;48.796;8.440;2023-08-06T12:49:42;96673.31;;;13.03;83.54
81511;BME280;70931;48.796;8.440;2023-08-06T12:52:07;96658.78;;;13.12;83.00
81511;BME280;70931;48.796;8.440;2023-08-06T12:54:33;96661.78;;;13.03;83.79
81511;BME280;70931;48.796;8.440;2023-08-06T12:56:58;96677.34;;;13.21;83.12
81511;BME280;70931;48.796;8.440;2023-08-06T12:59:23;96692.63;;;12.92;83.69
81511;BME280;70931;48.796;8.440;2023-08-06T13:01:48;96689.94;;;13.27;84.10
81511;BME280;70931;48.796;8.440;2023-08-06T13:04:14;96674.25;;;13.17;83.22